Haggerty Girls — WDG9740 — position and weather

sailwx.info

Track history (hours):
 
Tides and Currents Weather Stations Pressure Air Temp Water Temp Dewpoint Dewpoint Depression Visibility Wind Speed Wind Dir Waves Ship Positions

Haggerty Girls

Owner: REINAUER TRANSPORTATION CO.,LLC, STATEN ISLAND, NY. More information available from US FCC via Universal Licensing System and Coast Guard Vessel Documentation Center.

Last reported at 2018-Jun-17 18:22 UTC. Time now 2018-Jun-19 04:23 UTC.
Position N 40°46' W 074°00'.

Length 146 m; draft 7.5 m.

Type: . MMSI: 367590780.

Date/timePositionNaut miles runAvg speedWind from/ knotsBaromVisibWave heightAir tempDewpointWater temp
2018-Jun-17 18:22N 40°46' W 074°00'410.0
2018-Jun-17 18:00N 40°43' W 074°01'5 8.7
2018-Jun-17 17:29N 40°39' W 074°04'4 9.1
2018-Jun-17 17:00N 40°39' W 074°10'10 3.1
2018-Jun-17 13:47N 40°31' W 074°18'0 0.0
2018-Jun-17 13:30N 40°31' W 074°18'0 0.1
2018-Jun-17 13:00N 40°31' W 074°18'0 0.0
2018-Jun-17 12:30N 40°31' W 074°18'0 0.0
2018-Jun-17 11:47N 40°31' W 074°18'0 0.0
2018-Jun-17 11:23N 40°31' W 074°18'0 0.0
2018-Jun-17 10:59N 40°31' W 074°18'0 0.0
2018-Jun-17 10:30N 40°31' W 074°18'0 0.0
2018-Jun-17 10:01N 40°31' W 074°18'0 0.0
2018-Jun-17 09:29N 40°31' W 074°18'0 0.0
2018-Jun-17 08:12N 40°31' W 074°18'0 0.0
2018-Jun-17 08:00N 40°31' W 074°18'0 0.0
2018-Jun-17 07:30N 40°31' W 074°18'0 0.0
2018-Jun-17 07:00N 40°31' W 074°18'0 0.0
2018-Jun-17 06:30N 40°31' W 074°18'7 0.4
2018-Jun-16 13:43N 40°30' W 074°09'2 6.8
2018-Jun-16 13:23N 40°29' W 074°06'3 5.5
2018-Jun-16 12:55N 40°30' W 074°03'3 7.5
2018-Jun-16 12:30N 40°33' W 074°02'3 6.7
2018-Jun-16 12:00N 40°36' W 074°03'3 6.9
2018-Jun-16 11:30N 40°39' W 074°03'4 7.9
2018-Jun-16 11:00N 40°42' W 073°60'4 7.1
2018-Jun-16 10:31N 40°45' W 073°57'4 8.2
2018-Jun-16 10:00N 40°48' W 073°53'54 8.9
2018-Jun-16 03:55N 41°01' W 072°43'4 2.8
2018-Jun-16 02:39N 41°00' W 072°39'1 0.0
2018-Jun-14 16:31N 41°00' W 072°38'0 4.7
2018-Jun-14 16:30N 41°00' W 072°38'2 2.8
2018-Jun-14 15:56N 41°01' W 072°40'4 8.8
2018-Jun-14 15:30N 41°01' W 072°45'5 8.8
2018-Jun-14 14:58N 41°01' W 072°51'49 8.2
2018-Jun-14 09:04N 40°48' W 073°53'3 7.0
2018-Jun-14 08:43N 40°47' W 073°56'1 6.9
2018-Jun-14 08:30N 40°46' W 073°57'3 6.6
2018-Jun-14 08:01N 40°43' W 073°59'3 6.3
2018-Jun-14 07:30N 40°40' W 074°02'1 1.5
2018-Jun-14 06:59N 40°40' W 074°03'0 0.0
2018-Jun-14 06:29N 40°40' W 074°03'0 0.0
2018-Jun-14 05:59N 40°40' W 074°03'0 0.0
2018-Jun-14 05:29N 40°40' W 074°03'0 0.1
2018-Jun-14 04:59N 40°40' W 074°02'0 0.1
2018-Jun-14 04:29N 40°40' W 074°03'0 0.1
2018-Jun-14 03:59N 40°40' W 074°02'0 0.2
2018-Jun-14 03:30N 40°40' W 074°03'2 4.9
2018-Jun-14 03:00N 40°39' W 074°05'4 7.7
2018-Jun-14 02:30N 40°39' W 074°11'3 5.8
2018-Jun-14 02:00N 40°36' W 074°12'0 0.0
2018-Jun-14 01:05N 40°36' W 074°12'0 1.0
2018-Jun-14 01:00N 40°36' W 074°12'0 0.0
2018-Jun-14 00:25N 40°36' W 074°12'0 0.0
2018-Jun-14 00:00N 40°36' W 074°12'0 0.0
2018-Jun-13 23:30N 40°36' W 074°12'0 0.0
2018-Jun-13 22:59N 40°36' W 074°12'0 0.0
2018-Jun-13 22:20N 40°36' W 074°12'0 0.0
2018-Jun-13 21:50N 40°36' W 074°12'0 0.0
2018-Jun-13 21:30N 40°36' W 074°12'0 0.0
2018-Jun-13 21:00N 40°36' W 074°12'0 0.0
2018-Jun-13 20:29N 40°36' W 074°12'0 0.0
2018-Jun-13 19:58N 40°36' W 074°12'0 0.0
2018-Jun-13 19:25N 40°36' W 074°12'0 0.0
2018-Jun-13 17:18N 40°36' W 074°12'0 0.0
2018-Jun-13 16:55N 40°36' W 074°12'0 0.0
2018-Jun-13 16:28N 40°36' W 074°12'1 2.8
2018-Jun-13 16:00N 40°37' W 074°12'4 7.0
2018-Jun-13 15:30N 40°38' W 074°08'0 0.0
2018-Jun-13 15:00N 40°38' W 074°08'0 0.0
2018-Jun-13 14:30N 40°38' W 074°08'0 0.0
2018-Jun-13 14:00N 40°38' W 074°08'0 0.0
2018-Jun-13 13:30N 40°38' W 074°08'0 0.0
2018-Jun-13 13:01N 40°38' W 074°08'0 0.0
2018-Jun-13 12:30N 40°38' W 074°08'2 3.8
2018-Jun-13 12:00N 40°39' W 074°10'3 0.3
2018-Jun-13 01:07N 40°36' W 074°12'1 1.9
2018-Jun-13 00:44N 40°37' W 074°12'1 5.4
2018-Jun-13 00:29N 40°38' W 074°12'2 3.7
2018-Jun-12 23:59N 40°39' W 074°09'4 8.1
2018-Jun-12 23:30N 40°39' W 074°04'1 2.3
2018-Jun-12 22:58N 40°40' W 074°03'0 0.0
2018-Jun-12 22:28N 40°40' W 074°03'0 0.0
2018-Jun-12 21:58N 40°40' W 074°03'0 0.0
2018-Jun-12 21:25N 40°40' W 074°03'0 0.1
2018-Jun-12 20:58N 40°40' W 074°03'0 0.1
2018-Jun-12 20:28N 40°39' W 074°03'0 0.1
2018-Jun-12 19:58N 40°39' W 074°03'0 0.1
2018-Jun-12 19:28N 40°39' W 074°03'0 0.1
2018-Jun-12 18:58N 40°39' W 074°03'0 0.1
2018-Jun-12 18:28N 40°39' W 074°03'0 0.1
2018-Jun-12 17:58N 40°39' W 074°03'0 0.0
2018-Jun-12 17:28N 40°39' W 074°03'0 0.0
2018-Jun-12 16:58N 40°39' W 074°03'0 0.0
2018-Jun-12 16:25N 40°39' W 074°03'0 0.0
2018-Jun-12 15:58N 40°39' W 074°03'0 0.0
2018-Jun-12 15:28N 40°39' W 074°03'1 1.5
2018-Jun-12 15:00N 40°40' W 074°02'4 9.1
2018-Jun-12 14:30N 40°43' W 073°58'61 9.5
2018-Jun-12 08:05N 41°06' W 072°43'1 9.2
2018-Jun-12 08:00N 41°06' W 072°42'4 8.8
2018-Jun-12 07:30N 41°08' W 072°37'4 8.1
2018-Jun-12 07:00N 41°08' W 072°32'4 7.6
2018-Jun-12 06:30N 41°10' W 072°27'4 7.0
2018-Jun-12 06:00N 41°11' W 072°22'3 6.7
2018-Jun-12 05:30N 41°11' W 072°18'3 6.8
2018-Jun-12 05:00N 41°12' W 072°14'3 6.9
2018-Jun-12 04:30N 41°13' W 072°09'86 7.6
2018-Jun-11 17:07N 41°59' W 070°31'2 9.3
2018-Jun-11 16:52N 42°01' W 070°33'12 9.4
2018-Jun-11 15:37N 42°12' W 070°39'1 9.5
2018-Jun-11 15:30N 42°13' W 070°39'5 9.5
2018-Jun-11 15:00N 42°17' W 070°42'5 9.2
2018-Jun-11 14:30N 42°20' W 070°47'5 9.2
2018-Jun-11 14:00N 42°23' W 070°51'4 8.7
2018-Jun-11 13:30N 42°21' W 070°56'4 8.0
2018-Jun-11 13:00N 42°21' W 071°02'2 4.1
2018-Jun-11 12:30N 42°23' W 071°02'1 2.4
2018-Jun-11 12:00N 42°24' W 071°01'0 0.0
2018-Jun-11 11:30N 42°24' W 071°01'0 0.0
2018-Jun-11 11:00N 42°24' W 071°01'0 0.0
2018-Jun-11 10:30N 42°24' W 071°01'0 0.0
2018-Jun-11 10:00N 42°24' W 071°01'0 0.0
2018-Jun-11 09:30N 42°24' W 071°01'0 0.0
2018-Jun-11 09:00N 42°24' W 071°01'0 0.0
2018-Jun-11 08:30N 42°24' W 071°01'0 0.0
2018-Jun-11 08:00N 42°24' W 071°01'0 0.0
2018-Jun-11 07:30N 42°24' W 071°01'0 0.0
2018-Jun-11 07:00N 42°24' W 071°01'0 0.0
2018-Jun-11 06:27N 42°24' W 071°01'0 0.0
2018-Jun-11 06:00N 42°24' W 071°01'0 0.0
2018-Jun-11 05:30N 42°24' W 071°01'0 0.0
2018-Jun-11 05:00N 42°24' W 071°01'0 0.0
2018-Jun-11 04:30N 42°24' W 071°01'0 0.0
2018-Jun-11 04:00N 42°24' W 071°01'0 0.0
2018-Jun-11 03:30N 42°24' W 071°01'0 0.0
2018-Jun-11 03:00N 42°24' W 071°01'0 0.0
2018-Jun-11 02:30N 42°24' W 071°01'0 0.0
2018-Jun-11 02:00N 42°24' W 071°01'0 0.0
2018-Jun-11 01:30N 42°24' W 071°01'0 0.0
2018-Jun-11 01:00N 42°24' W 071°01'0 0.0
2018-Jun-11 00:30N 42°24' W 071°01'0 0.0
2018-Jun-11 00:00N 42°24' W 071°01'0 0.0
2018-Jun-10 23:30N 42°24' W 071°01'0 0.0
2018-Jun-10 23:00N 42°24' W 071°01'0 0.0
2018-Jun-10 22:30N 42°24' W 071°01'0 0.0
2018-Jun-10 22:00N 42°24' W 071°01'0 0.0
2018-Jun-10 21:30N 42°24' W 071°01'0 0.0
2018-Jun-10 21:00N 42°24' W 071°01'0 0.0
2018-Jun-10 20:30N 42°24' W 071°01'0 0.0
2018-Jun-10 20:00N 42°24' W 071°01'0 0.0
2018-Jun-10 19:30N 42°24' W 071°01'0 0.0
2018-Jun-10 19:00N 42°24' W 071°01'0 0.1
2018-Jun-10 18:30N 42°24' W 071°01'0 0.4
2018-Jun-10 18:00N 42°24' W 071°01'2 3.2
2018-Jun-10 17:30N 42°23' W 071°03'1 2.4
2018-Jun-10 17:00N 42°22' W 071°02'0 0.1
2018-Jun-10 16:28N 42°22' W 071°02'0 0.1
2018-Jun-10 15:58N 42°21' W 071°02'0 0.1
2018-Jun-10 15:28N 42°22' W 071°02'0 0.2
2018-Jun-10 14:58N 42°21' W 071°02'0 0.1
2018-Jun-10 14:28N 42°21' W 071°02'0 0.0
2018-Jun-10 13:28N 42°21' W 071°02'0 0.1
2018-Jun-10 12:58N 42°21' W 071°02'0 0.0
2018-Jun-10 12:28N 42°21' W 071°02'0 0.1
2018-Jun-10 11:58N 42°21' W 071°02'0 0.1
2018-Jun-10 11:28N 42°21' W 071°02'0 0.0
2018-Jun-10 10:58N 42°21' W 071°02'0 0.1
2018-Jun-10 10:28N 42°21' W 071°02'0 0.2
2018-Jun-10 09:58N 42°21' W 071°02'0 0.2
2018-Jun-10 09:25N 42°21' W 071°02'0 0.1
2018-Jun-10 08:58N 42°22' W 071°02'1 1.6
2018-Jun-10 08:30N 42°22' W 071°03'1 2.0
2018-Jun-10 08:00N 42°23' W 071°03'0 0.1
2018-Jun-10 07:30N 42°23' W 071°03'0 0.0
2018-Jun-10 07:00N 42°23' W 071°03'0 0.0
2018-Jun-10 06:30N 42°23' W 071°03'0 0.0
2018-Jun-10 06:00N 42°23' W 071°03'0 0.6
2018-Jun-10 05:30N 42°23' W 071°03'0 0.0
2018-Jun-10 05:00N 42°23' W 071°03'0 0.0
2018-Jun-10 04:30N 42°23' W 071°03'0 0.0
2018-Jun-10 04:00N 42°23' W 071°03'0 0.6
2018-Jun-10 03:28N 42°23' W 071°03'0 0.0
2018-Jun-10 02:58N 42°23' W 071°03'0 0.0
2018-Jun-10 02:28N 42°23' W 071°03'0 0.0
2018-Jun-10 01:58N 42°23' W 071°03'0 0.0
2018-Jun-10 01:28N 42°23' W 071°03'0 0.0
2018-Jun-10 00:58N 42°23' W 071°03'0 0.0
2018-Jun-10 00:28N 42°23' W 071°03'0 0.0
2018-Jun-09 23:59N 42°23' W 071°03'0 0.0
2018-Jun-09 23:30N 42°23' W 071°03'1 1.4
2018-Jun-09 23:00N 42°22' W 071°03'3 6.8
2018-Jun-09 22:30N 42°20' W 070°60'4 8.9
2018-Jun-09 22:00N 42°22' W 070°54'4 8.1
2018-Jun-09 21:30N 42°21' W 070°49'5 9.3
2018-Jun-09 21:00N 42°18' W 070°44'4 9.0
2018-Jun-09 20:30N 42°15' W 070°41'5 9.2
2018-Jun-09 20:00N 42°10' W 070°38'5 9.1
2018-Jun-09 19:30N 42°06' W 070°36'174 8.3
2018-Jun-08 22:24N 40°28' W 073°47'4 9.4
2018-Jun-08 21:58N 40°27' W 073°53'4 8.0
2018-Jun-08 21:29N 40°28' W 073°58'4 8.3
2018-Jun-08 21:00N 40°29' W 074°03'11 1.2
2018-Jun-08 11:19N 40°31' W 074°18'0 0.0
2018-Jun-08 11:00N 40°31' W 074°18'0 0.0
2018-Jun-08 10:28N 40°31' W 074°18'0 0.0
2018-Jun-08 10:00N 40°31' W 074°18'0 0.0
2018-Jun-08 09:09N 40°31' W 074°18'0 0.0
2018-Jun-08 08:59N 40°31' W 074°18'0 0.0
2018-Jun-08 08:30N 40°31' W 074°18'0 0.0
2018-Jun-08 06:57N 40°31' W 074°18'0 0.0
2018-Jun-08 06:12N 40°31' W 074°18'0 0.0
2018-Jun-08 06:00N 40°31' W 074°18'0 0.0
2018-Jun-08 05:27N 40°31' W 074°18'0 0.0
2018-Jun-08 05:00N 40°31' W 074°18'0 0.0
2018-Jun-08 04:30N 40°31' W 074°18'0 0.0
2018-Jun-08 03:55N 40°31' W 074°18'0 0.0
2018-Jun-08 03:28N 40°31' W 074°18'  
Track history (hours):
 
Tides and Currents Weather Stations Pressure Air Temp Water Temp Dewpoint Dewpoint Depression Visibility Wind Speed Wind Dir Waves Ship Positions

Haggerty Girls

Owner: REINAUER TRANSPORTATION CO.,LLC, STATEN ISLAND, NY. More information available from US FCC via Universal Licensing System and Coast Guard Vessel Documentation Center.

Last reported at 2018-Jun-17 18:22 UTC. Time now 2018-Jun-19 04:23 UTC.
Position N 40°46' W 074°00'.

Length 146 m; draft 7.5 m.

Type: . MMSI: 367590780.

Date/timePositionNaut miles runAvg speedWind from/ knotsBaromVisibWave heightAir tempDewpointWater temp
2018-Jun-17 18:22N 40°46' W 074°00'410.0
2018-Jun-17 18:00N 40°43' W 074°01'5 8.7
2018-Jun-17 17:29N 40°39' W 074°04'4 9.1
2018-Jun-17 17:00N 40°39' W 074°10'10 3.1
2018-Jun-17 13:47N 40°31' W 074°18'0 0.0
2018-Jun-17 13:30N 40°31' W 074°18'0 0.1
2018-Jun-17 13:00N 40°31' W 074°18'0 0.0
2018-Jun-17 12:30N 40°31' W 074°18'0 0.0
2018-Jun-17 11:47N 40°31' W 074°18'0 0.0
2018-Jun-17 11:23N 40°31' W 074°18'0 0.0
2018-Jun-17 10:59N 40°31' W 074°18'0 0.0
2018-Jun-17 10:30N 40°31' W 074°18'0 0.0
2018-Jun-17 10:01N 40°31' W 074°18'0 0.0
2018-Jun-17 09:29N 40°31' W 074°18'0 0.0
2018-Jun-17 08:12N 40°31' W 074°18'0 0.0
2018-Jun-17 08:00N 40°31' W 074°18'0 0.0
2018-Jun-17 07:30N 40°31' W 074°18'0 0.0
2018-Jun-17 07:00N 40°31' W 074°18'0 0.0
2018-Jun-17 06:30N 40°31' W 074°18'7 0.4
2018-Jun-16 13:43N 40°30' W 074°09'2 6.8
2018-Jun-16 13:23N 40°29' W 074°06'3 5.5
2018-Jun-16 12:55N 40°30' W 074°03'3 7.5
2018-Jun-16 12:30N 40°33' W 074°02'3 6.7
2018-Jun-16 12:00N 40°36' W 074°03'3 6.9
2018-Jun-16 11:30N 40°39' W 074°03'4 7.9
2018-Jun-16 11:00N 40°42' W 073°60'4 7.1
2018-Jun-16 10:31N 40°45' W 073°57'4 8.2
2018-Jun-16 10:00N 40°48' W 073°53'54 8.9
2018-Jun-16 03:55N 41°01' W 072°43'4 2.8
2018-Jun-16 02:39N 41°00' W 072°39'1 0.0
2018-Jun-14 16:31N 41°00' W 072°38'0 4.7
2018-Jun-14 16:30N 41°00' W 072°38'2 2.8
2018-Jun-14 15:56N 41°01' W 072°40'4 8.8
2018-Jun-14 15:30N 41°01' W 072°45'5 8.8
2018-Jun-14 14:58N 41°01' W 072°51'49 8.2
2018-Jun-14 09:04N 40°48' W 073°53'3 7.0
2018-Jun-14 08:43N 40°47' W 073°56'1 6.9
2018-Jun-14 08:30N 40°46' W 073°57'3 6.6
2018-Jun-14 08:01N 40°43' W 073°59'3 6.3
2018-Jun-14 07:30N 40°40' W 074°02'1 1.5
2018-Jun-14 06:59N 40°40' W 074°03'0 0.0
2018-Jun-14 06:29N 40°40' W 074°03'0 0.0
2018-Jun-14 05:59N 40°40' W 074°03'0 0.0
2018-Jun-14 05:29N 40°40' W 074°03'0 0.1
2018-Jun-14 04:59N 40°40' W 074°02'0 0.1
2018-Jun-14 04:29N 40°40' W 074°03'0 0.1
2018-Jun-14 03:59N 40°40' W 074°02'0 0.2
2018-Jun-14 03:30N 40°40' W 074°03'2 4.9
2018-Jun-14 03:00N 40°39' W 074°05'4 7.7
2018-Jun-14 02:30N 40°39' W 074°11'3 5.8
2018-Jun-14 02:00N 40°36' W 074°12'0 0.0
2018-Jun-14 01:05N 40°36' W 074°12'0 1.0
2018-Jun-14 01:00N 40°36' W 074°12'0 0.0
2018-Jun-14 00:25N 40°36' W 074°12'0 0.0
2018-Jun-14 00:00N 40°36' W 074°12'0 0.0
2018-Jun-13 23:30N 40°36' W 074°12'0 0.0
2018-Jun-13 22:59N 40°36' W 074°12'0 0.0
2018-Jun-13 22:20N 40°36' W 074°12'0 0.0
2018-Jun-13 21:50N 40°36' W 074°12'0 0.0
2018-Jun-13 21:30N 40°36' W 074°12'0 0.0
2018-Jun-13 21:00N 40°36' W 074°12'0 0.0
2018-Jun-13 20:29N 40°36' W 074°12'0 0.0
2018-Jun-13 19:58N 40°36' W 074°12'0 0.0
2018-Jun-13 19:25N 40°36' W 074°12'0 0.0
2018-Jun-13 17:18N 40°36' W 074°12'0 0.0
2018-Jun-13 16:55N 40°36' W 074°12'0 0.0
2018-Jun-13 16:28N 40°36' W 074°12'1 2.8
2018-Jun-13 16:00N 40°37' W 074°12'4 7.0
2018-Jun-13 15:30N 40°38' W 074°08'0 0.0
2018-Jun-13 15:00N 40°38' W 074°08'0 0.0
2018-Jun-13 14:30N 40°38' W 074°08'0 0.0
2018-Jun-13 14:00N 40°38' W 074°08'0 0.0
2018-Jun-13 13:30N 40°38' W 074°08'0 0.0
2018-Jun-13 13:01N 40°38' W 074°08'0 0.0
2018-Jun-13 12:30N 40°38' W 074°08'2 3.8
2018-Jun-13 12:00N 40°39' W 074°10'3 0.3
2018-Jun-13 01:07N 40°36' W 074°12'1 1.9
2018-Jun-13 00:44N 40°37' W 074°12'1 5.4
2018-Jun-13 00:29N 40°38' W 074°12'2 3.7
2018-Jun-12 23:59N 40°39' W 074°09'4 8.1
2018-Jun-12 23:30N 40°39' W 074°04'1 2.3
2018-Jun-12 22:58N 40°40' W 074°03'0 0.0
2018-Jun-12 22:28N 40°40' W 074°03'0 0.0
2018-Jun-12 21:58N 40°40' W 074°03'0 0.0
2018-Jun-12 21:25N 40°40' W 074°03'0 0.1
2018-Jun-12 20:58N 40°40' W 074°03'0 0.1
2018-Jun-12 20:28N 40°39' W 074°03'0 0.1
2018-Jun-12 19:58N 40°39' W 074°03'0 0.1
2018-Jun-12 19:28N 40°39' W 074°03'0 0.1
2018-Jun-12 18:58N 40°39' W 074°03'0 0.1
2018-Jun-12 18:28N 40°39' W 074°03'0 0.1
2018-Jun-12 17:58N 40°39' W 074°03'0 0.0
2018-Jun-12 17:28N 40°39' W 074°03'0 0.0
2018-Jun-12 16:58N 40°39' W 074°03'0 0.0
2018-Jun-12 16:25N 40°39' W 074°03'0 0.0
2018-Jun-12 15:58N 40°39' W 074°03'0 0.0
2018-Jun-12 15:28N 40°39' W 074°03'1 1.5
2018-Jun-12 15:00N 40°40' W 074°02'4 9.1
2018-Jun-12 14:30N 40°43' W 073°58'61 9.5
2018-Jun-12 08:05N 41°06' W 072°43'1 9.2
2018-Jun-12 08:00N 41°06' W 072°42'4 8.8
2018-Jun-12 07:30N 41°08' W 072°37'4 8.1
2018-Jun-12 07:00N 41°08' W 072°32'4 7.6
2018-Jun-12 06:30N 41°10' W 072°27'4 7.0
2018-Jun-12 06:00N 41°11' W 072°22'3 6.7
2018-Jun-12 05:30N 41°11' W 072°18'3 6.8
2018-Jun-12 05:00N 41°12' W 072°14'3 6.9
2018-Jun-12 04:30N 41°13' W 072°09'86 7.6
2018-Jun-11 17:07N 41°59' W 070°31'2 9.3
2018-Jun-11 16:52N 42°01' W 070°33'12 9.4
2018-Jun-11 15:37N 42°12' W 070°39'1 9.5
2018-Jun-11 15:30N 42°13' W 070°39'5 9.5
2018-Jun-11 15:00N 42°17' W 070°42'5 9.2
2018-Jun-11 14:30N 42°20' W 070°47'5 9.2
2018-Jun-11 14:00N 42°23' W 070°51'4 8.7
2018-Jun-11 13:30N 42°21' W 070°56'4 8.0
2018-Jun-11 13:00N 42°21' W 071°02'2 4.1
2018-Jun-11 12:30N 42°23' W 071°02'1 2.4
2018-Jun-11 12:00N 42°24' W 071°01'0 0.0
2018-Jun-11 11:30N 42°24' W 071°01'0 0.0
2018-Jun-11 11:00N 42°24' W 071°01'0 0.0
2018-Jun-11 10:30N 42°24' W 071°01'0 0.0
2018-Jun-11 10:00N 42°24' W 071°01'0 0.0
2018-Jun-11 09:30N 42°24' W 071°01'0 0.0
2018-Jun-11 09:00N 42°24' W 071°01'0 0.0
2018-Jun-11 08:30N 42°24' W 071°01'0 0.0
2018-Jun-11 08:00N 42°24' W 071°01'0 0.0
2018-Jun-11 07:30N 42°24' W 071°01'0 0.0
2018-Jun-11 07:00N 42°24' W 071°01'0 0.0
2018-Jun-11 06:27N 42°24' W 071°01'0 0.0
2018-Jun-11 06:00N 42°24' W 071°01'0 0.0
2018-Jun-11 05:30N 42°24' W 071°01'0 0.0
2018-Jun-11 05:00N 42°24' W 071°01'0 0.0
2018-Jun-11 04:30N 42°24' W 071°01'0 0.0
2018-Jun-11 04:00N 42°24' W 071°01'0 0.0
2018-Jun-11 03:30N 42°24' W 071°01'0 0.0
2018-Jun-11 03:00N 42°24' W 071°01'0 0.0
2018-Jun-11 02:30N 42°24' W 071°01'0 0.0
2018-Jun-11 02:00N 42°24' W 071°01'0 0.0
2018-Jun-11 01:30N 42°24' W 071°01'0 0.0
2018-Jun-11 01:00N 42°24' W 071°01'0 0.0
2018-Jun-11 00:30N 42°24' W 071°01'0 0.0
2018-Jun-11 00:00N 42°24' W 071°01'0 0.0
2018-Jun-10 23:30N 42°24' W 071°01'0 0.0
2018-Jun-10 23:00N 42°24' W 071°01'0 0.0
2018-Jun-10 22:30N 42°24' W 071°01'0 0.0
2018-Jun-10 22:00N 42°24' W 071°01'0 0.0
2018-Jun-10 21:30N 42°24' W 071°01'0 0.0
2018-Jun-10 21:00N 42°24' W 071°01'0 0.0
2018-Jun-10 20:30N 42°24' W 071°01'0 0.0
2018-Jun-10 20:00N 42°24' W 071°01'0 0.0
2018-Jun-10 19:30N 42°24' W 071°01'0 0.0
2018-Jun-10 19:00N 42°24' W 071°01'0 0.1
2018-Jun-10 18:30N 42°24' W 071°01'0 0.4
2018-Jun-10 18:00N 42°24' W 071°01'2 3.2
2018-Jun-10 17:30N 42°23' W 071°03'1 2.4
2018-Jun-10 17:00N 42°22' W 071°02'0 0.1
2018-Jun-10 16:28N 42°22' W 071°02'0 0.1
2018-Jun-10 15:58N 42°21' W 071°02'0 0.1
2018-Jun-10 15:28N 42°22' W 071°02'0 0.2
2018-Jun-10 14:58N 42°21' W 071°02'0 0.1
2018-Jun-10 14:28N 42°21' W 071°02'0 0.0
2018-Jun-10 13:28N 42°21' W 071°02'0 0.1
2018-Jun-10 12:58N 42°21' W 071°02'0 0.0
2018-Jun-10 12:28N 42°21' W 071°02'0 0.1
2018-Jun-10 11:58N 42°21' W 071°02'0 0.1
2018-Jun-10 11:28N 42°21' W 071°02'0 0.0
2018-Jun-10 10:58N 42°21' W 071°02'0 0.1
2018-Jun-10 10:28N 42°21' W 071°02'0 0.2
2018-Jun-10 09:58N 42°21' W 071°02'0 0.2
2018-Jun-10 09:25N 42°21' W 071°02'0 0.1
2018-Jun-10 08:58N 42°22' W 071°02'1 1.6
2018-Jun-10 08:30N 42°22' W 071°03'1 2.0
2018-Jun-10 08:00N 42°23' W 071°03'0 0.1
2018-Jun-10 07:30N 42°23' W 071°03'0 0.0
2018-Jun-10 07:00N 42°23' W 071°03'0 0.0
2018-Jun-10 06:30N 42°23' W 071°03'0 0.0
2018-Jun-10 06:00N 42°23' W 071°03'0 0.6
2018-Jun-10 05:30N 42°23' W 071°03'0 0.0
2018-Jun-10 05:00N 42°23' W 071°03'0 0.0
2018-Jun-10 04:30N 42°23' W 071°03'0 0.0
2018-Jun-10 04:00N 42°23' W 071°03'0 0.6
2018-Jun-10 03:28N 42°23' W 071°03'0 0.0
2018-Jun-10 02:58N 42°23' W 071°03'0 0.0
2018-Jun-10 02:28N 42°23' W 071°03'0 0.0
2018-Jun-10 01:58N 42°23' W 071°03'0 0.0
2018-Jun-10 01:28N 42°23' W 071°03'0 0.0
2018-Jun-10 00:58N 42°23' W 071°03'0 0.0
2018-Jun-10 00:28N 42°23' W 071°03'0 0.0
2018-Jun-09 23:59N 42°23' W 071°03'0 0.0
2018-Jun-09 23:30N 42°23' W 071°03'1 1.4
2018-Jun-09 23:00N 42°22' W 071°03'3 6.8
2018-Jun-09 22:30N 42°20' W 070°60'4 8.9
2018-Jun-09 22:00N 42°22' W 070°54'4 8.1
2018-Jun-09 21:30N 42°21' W 070°49'5 9.3
2018-Jun-09 21:00N 42°18' W 070°44'4 9.0
2018-Jun-09 20:30N 42°15' W 070°41'5 9.2
2018-Jun-09 20:00N 42°10' W 070°38'5 9.1
2018-Jun-09 19:30N 42°06' W 070°36'174 8.3
2018-Jun-08 22:24N 40°28' W 073°47'4 9.4
2018-Jun-08 21:58N 40°27' W 073°53'4 8.0
2018-Jun-08 21:29N 40°28' W 073°58'4 8.3
2018-Jun-08 21:00N 40°29' W 074°03'11 1.2
2018-Jun-08 11:19N 40°31' W 074°18'0 0.0
2018-Jun-08 11:00N 40°31' W 074°18'0 0.0
2018-Jun-08 10:28N 40°31' W 074°18'0 0.0
2018-Jun-08 10:00N 40°31' W 074°18'0 0.0
2018-Jun-08 09:09N 40°31' W 074°18'0 0.0
2018-Jun-08 08:59N 40°31' W 074°18'0 0.0
2018-Jun-08 08:30N 40°31' W 074°18'0 0.0
2018-Jun-08 06:57N 40°31' W 074°18'0 0.0
2018-Jun-08 06:12N 40°31' W 074°18'0 0.0
2018-Jun-08 06:00N 40°31' W 074°18'0 0.0
2018-Jun-08 05:27N 40°31' W 074°18'0 0.0
2018-Jun-08 05:00N 40°31' W 074°18'0 0.0
2018-Jun-08 04:30N 40°31' W 074°18'0 0.0
2018-Jun-08 03:55N 40°31' W 074°18'0 0.0
2018-Jun-08 03:28N 40°31' W 074°18'  

Dump ship's entire track history